createdAt,value
2022-08-11T00:00:14.682Z,0.00
2022-08-11T00:01:14.680Z,0.00
2022-08-11T00:02:15.207Z,0.00
2022-08-11T00:03:14.729Z,0.00
2022-08-11T00:04:14.667Z,0.00
2022-08-11T00:05:14.664Z,0.00
2022-08-11T00:06:14.677Z,0.00
2022-08-11T00:07:14.662Z,0.00
2022-08-11T00:08:14.657Z,0.00
2022-08-11T00:09:14.658Z,0.00
2022-08-11T00:10:14.649Z,0.00
2022-08-11T00:11:14.649Z,0.00
2022-08-11T00:12:14.653Z,0.00
2022-08-11T00:13:16.808Z,0.00
2022-08-11T00:14:14.636Z,0.00
2022-08-11T00:15:14.637Z,0.00
2022-08-11T00:16:14.633Z,0.00
2022-08-11T00:17:14.684Z,0.00
2022-08-11T00:18:14.627Z,0.00
2022-08-11T00:19:14.627Z,0.00
2022-08-11T00:20:16.703Z,0.00
2022-08-11T00:21:14.618Z,0.00
2022-08-11T00:22:14.619Z,0.00
2022-08-11T00:23:14.642Z,0.00
2022-08-11T00:24:14.610Z,0.00
2022-08-11T00:25:14.606Z,0.00
2022-08-11T00:26:14.605Z,0.00
2022-08-11T00:27:14.599Z,0.00
2022-08-11T00:28:14.603Z,0.00
2022-08-11T00:29:14.597Z,0.00
2022-08-11T00:30:14.590Z,0.00
2022-08-11T00:31:14.592Z,0.00
2022-08-11T00:32:14.586Z,0.00
2022-08-11T00:33:14.583Z,0.00
2022-08-11T00:34:14.580Z,0.00
2022-08-11T00:35:54.596Z,0.00
2022-08-11T00:36:14.571Z,0.00
2022-08-11T00:37:14.573Z,0.00
2022-08-11T00:38:14.568Z,0.00
2022-08-11T00:39:14.640Z,0.00
2022-08-11T00:40:14.562Z,0.00
2022-08-11T00:41:14.579Z,0.00
2022-08-11T00:42:14.554Z,0.00
2022-08-11T00:43:20.494Z,0.00
2022-08-11T00:44:14.551Z,0.00
2022-08-11T00:45:14.573Z,0.00
2022-08-11T00:46:14.540Z,0.00
2022-08-11T00:47:14.542Z,0.00
2022-08-11T00:48:14.539Z,0.00
2022-08-11T00:49:14.540Z,0.00
2022-08-11T00:50:14.528Z,0.00
2022-08-11T00:51:14.528Z,0.00
2022-08-11T00:52:14.522Z,0.00
2022-08-11T00:53:14.524Z,0.00
2022-08-11T00:54:14.519Z,0.00
2022-08-11T00:55:14.514Z,0.00
2022-08-11T00:56:14.516Z,0.00
2022-08-11T00:57:36.231Z,0.00
2022-08-11T00:58:14.505Z,0.00
2022-08-11T00:59:35.318Z,0.00
2022-08-11T01:00:14.498Z,0.00
2022-08-11T01:01:14.554Z,0.00
2022-08-11T01:02:14.494Z,0.00
2022-08-11T01:03:14.489Z,0.00
2022-08-11T01:04:14.489Z,0.00
2022-08-11T01:05:14.485Z,0.00
2022-08-11T01:06:14.482Z,0.00
2022-08-11T01:07:14.484Z,0.00
2022-08-11T01:08:14.474Z,0.00
2022-08-11T01:09:21.029Z,0.00
2022-08-11T01:10:14.468Z,0.00
2022-08-11T01:11:14.466Z,0.00
2022-08-11T01:12:14.462Z,0.00
2022-08-11T01:13:14.461Z,0.00
2022-08-11T01:14:14.462Z,0.00
2022-08-11T01:15:14.452Z,0.00
2022-08-11T01:16:14.449Z,0.00
2022-08-11T01:17:14.442Z,0.00
2022-08-11T01:18:14.444Z,0.00
2022-08-11T01:19:14.441Z,0.00
2022-08-11T01:20:45.613Z,0.00
2022-08-11T01:21:14.430Z,0.00
2022-08-11T01:22:14.432Z,0.00
2022-08-11T01:23:15.848Z,0.00
2022-08-11T01:24:14.424Z,0.00
2022-08-11T01:25:14.440Z,0.00
2022-08-11T01:26:14.417Z,0.00
2022-08-11T01:27:19.211Z,0.00
2022-08-11T01:28:14.411Z,0.00
2022-08-11T01:29:14.409Z,0.00
2022-08-11T01:30:14.404Z,0.00
2022-08-11T01:31:14.398Z,0.00
2022-08-11T01:32:14.399Z,0.00
2022-08-11T01:33:14.403Z,0.00
2022-08-11T01:34:14.445Z,0.00
2022-08-11T01:35:14.392Z,0.00
2022-08-11T01:36:14.380Z,0.00
2022-08-11T01:37:14.379Z,0.00
2022-08-11T01:38:14.380Z,0.00
2022-08-11T01:39:17.774Z,0.00
2022-08-11T01:40:14.391Z,0.00
2022-08-11T01:41:14.368Z,0.00
2022-08-11T01:42:14.361Z,0.00
2022-08-11T01:43:14.359Z,0.00
2022-08-11T01:44:14.358Z,0.00
2022-08-11T01:45:14.350Z,0.00
2022-08-11T01:46:14.352Z,0.00
2022-08-11T01:47:14.346Z,0.00
2022-08-11T01:48:14.347Z,0.00
2022-08-11T01:50:06.618Z,0.00
2022-08-11T01:50:14.337Z,0.00
2022-08-11T01:51:17.052Z,0.00
2022-08-11T01:52:14.333Z,0.00
2022-08-11T01:53:14.325Z,0.00
2022-08-11T01:54:14.323Z,0.00
2022-08-11T01:55:14.315Z,0.00
2022-08-11T01:56:14.318Z,0.00
2022-08-11T01:57:14.314Z,0.00
2022-08-11T01:58:14.310Z,0.00
2022-08-11T01:59:14.356Z,0.00
2022-08-11T02:00:14.299Z,0.00
2022-08-11T02:01:14.345Z,0.00
2022-08-11T02:02:17.769Z,0.00
2022-08-11T02:03:14.289Z,0.00
2022-08-11T02:04:14.289Z,0.00
2022-08-11T02:05:14.280Z,0.00
2022-08-11T02:06:14.282Z,0.00
2022-08-11T02:07:14.274Z,0.00
2022-08-11T02:08:14.274Z,0.00
2022-08-11T02:09:14.271Z,0.00
2022-08-11T02:10:14.263Z,0.00
2022-08-11T02:11:14.261Z,0.00
2022-08-11T02:12:14.261Z,0.00
2022-08-11T02:13:14.255Z,0.00
2022-08-11T02:14:14.249Z,0.00
2022-08-11T02:15:14.245Z,0.00
2022-08-11T02:16:14.245Z,0.00
2022-08-11T02:17:14.243Z,0.00
2022-08-11T02:18:14.238Z,0.00
2022-08-11T02:19:14.233Z,0.00
2022-08-11T02:20:14.228Z,0.00
2022-08-11T02:21:14.229Z,0.00
2022-08-11T02:22:14.225Z,0.00
2022-08-11T02:23:14.217Z,0.00
2022-08-11T02:24:14.214Z,0.00
2022-08-11T02:25:17.062Z,0.00
2022-08-11T02:26:14.207Z,0.00
2022-08-11T02:27:14.203Z,0.00
2022-08-11T02:28:14.201Z,0.00
2022-08-11T02:29:14.195Z,0.00
2022-08-11T02:30:14.191Z,0.00
2022-08-11T02:31:14.653Z,0.00
2022-08-11T02:32:28.473Z,0.00
2022-08-11T02:33:14.181Z,0.00
2022-08-11T02:34:14.179Z,0.00
2022-08-11T02:35:14.171Z,0.00
2022-08-11T02:36:14.172Z,0.00
2022-08-11T02:37:14.168Z,0.00
2022-08-11T02:38:14.163Z,0.00
2022-08-11T02:39:14.192Z,0.00
2022-08-11T02:40:14.153Z,0.00
2022-08-11T02:41:14.154Z,0.00
2022-08-11T02:42:32.060Z,0.00
2022-08-11T02:43:14.144Z,0.00
2022-08-11T02:44:14.140Z,0.00
2022-08-11T02:45:14.139Z,0.00
2022-08-11T02:46:18.215Z,0.00
2022-08-11T02:47:14.130Z,0.00
2022-08-11T02:48:14.125Z,0.00
2022-08-11T02:49:14.138Z,0.00
2022-08-11T02:50:14.116Z,0.00
2022-08-11T02:51:14.111Z,0.00
2022-08-11T02:52:14.107Z,0.00
2022-08-11T02:53:14.108Z,0.00
2022-08-11T02:54:14.103Z,0.00
2022-08-11T02:55:57.515Z,0.00
2022-08-11T02:56:14.091Z,0.00
2022-08-11T02:57:14.100Z,0.00
2022-08-11T02:58:14.085Z,0.00
2022-08-11T02:59:14.084Z,0.00
2022-08-11T03:00:14.080Z,0.00
2022-08-11T03:01:14.138Z,0.00
2022-08-11T03:02:14.069Z,0.00
2022-08-11T03:03:14.069Z,0.00
2022-08-11T03:04:14.061Z,0.00
2022-08-11T03:05:14.062Z,0.00
2022-08-11T03:06:14.055Z,0.00
2022-08-11T03:07:28.669Z,0.00
2022-08-11T03:08:14.045Z,0.00
2022-08-11T03:09:14.045Z,0.00
2022-08-11T03:10:14.036Z,0.00
2022-08-11T03:11:14.040Z,0.00
2022-08-11T03:12:14.029Z,0.00
2022-08-11T03:13:14.236Z,0.00
2022-08-11T03:14:14.026Z,0.00
2022-08-11T03:15:14.021Z,0.00
2022-08-11T03:16:14.013Z,0.00
2022-08-11T03:17:14.010Z,0.00
2022-08-11T03:18:14.006Z,0.00
2022-08-11T03:19:14.003Z,0.00
2022-08-11T03:20:14.027Z,0.00
2022-08-11T03:21:13.998Z,0.00
2022-08-11T03:22:14.499Z,0.00
2022-08-11T03:23:19.831Z,0.00
2022-08-11T03:24:13.983Z,0.00
2022-08-11T03:25:13.997Z,0.00
2022-08-11T03:26:13.976Z,0.00
2022-08-11T03:27:13.974Z,0.00
2022-08-11T03:28:13.971Z,0.00
2022-08-11T03:29:18.377Z,0.00
2022-08-11T03:30:13.958Z,0.00
2022-08-11T03:31:13.958Z,0.00
2022-08-11T03:32:13.954Z,0.00
2022-08-11T03:33:13.947Z,0.00
2022-08-11T03:34:13.942Z,0.00
2022-08-11T03:35:21.185Z,0.00
2022-08-11T03:36:13.935Z,0.00
2022-08-11T03:37:16.982Z,0.00
2022-08-11T03:38:13.927Z,0.00
2022-08-11T03:39:14.027Z,0.00
2022-08-11T03:40:13.918Z,4.00
2022-08-11T03:41:50.023Z,0.00
2022-08-11T03:42:13.906Z,0.00
2022-08-11T03:43:13.908Z,4.00
2022-08-11T03:44:13.906Z,4.00
2022-08-11T03:45:13.903Z,0.00
2022-08-11T03:46:13.893Z,4.00
2022-08-11T03:47:13.892Z,4.00
2022-08-11T03:48:13.888Z,4.00
2022-08-11T03:49:13.882Z,4.00
2022-08-11T03:50:13.877Z,4.00
2022-08-11T03:51:13.875Z,4.00
2022-08-11T03:52:13.869Z,8.00
2022-08-11T03:53:13.867Z,12.00
2022-08-11T03:54:13.857Z,8.00
2022-08-11T03:55:13.858Z,12.00
2022-08-11T03:56:13.853Z,12.00
2022-08-11T03:57:13.851Z,16.00
2022-08-11T03:58:13.844Z,16.00
2022-08-11T03:59:13.840Z,20.00
2022-08-11T04:00:13.836Z,24.00
2022-08-11T04:01:13.858Z,24.00
2022-08-11T04:02:13.825Z,28.00
2022-08-11T04:03:13.823Z,32.00
2022-08-11T04:04:13.818Z,36.00
2022-08-11T04:05:13.817Z,40.00
2022-08-11T04:06:13.808Z,44.00
2022-08-11T04:07:17.800Z,48.00
2022-08-11T04:08:13.802Z,52.00
2022-08-11T04:09:13.798Z,56.00
2022-08-11T04:10:13.794Z,64.00
2022-08-11T04:11:13.790Z,68.00
2022-08-11T04:12:17.363Z,76.00
2022-08-11T04:13:13.782Z,80.00
2022-08-11T04:14:13.775Z,88.00
2022-08-11T04:15:13.772Z,92.00
2022-08-11T04:16:13.768Z,100.00
2022-08-11T04:17:13.764Z,108.00
2022-08-11T04:18:13.758Z,116.00
2022-08-11T04:19:13.753Z,124.00
2022-08-11T04:20:13.750Z,132.00
2022-08-11T04:21:13.747Z,140.00
2022-08-11T04:22:13.742Z,148.00
2022-08-11T04:23:13.737Z,160.00
2022-08-11T04:24:38.179Z,168.00
2022-08-11T04:25:13.730Z,176.00
2022-08-11T04:26:18.616Z,180.00
2022-08-11T04:27:14.380Z,192.00
2022-08-11T04:28:28.405Z,200.00
2022-08-11T04:29:13.710Z,208.00
2022-08-11T04:30:13.709Z,220.00
2022-08-11T04:31:13.706Z,228.00
2022-08-11T04:32:13.696Z,240.00
2022-08-11T04:33:13.698Z,252.00
2022-08-11T04:34:13.692Z,260.00
2022-08-11T04:35:13.686Z,268.00
2022-08-11T04:36:13.681Z,280.00
2022-08-11T04:37:13.679Z,292.00
2022-08-11T04:38:13.668Z,300.00
2022-08-11T04:39:13.691Z,312.00
2022-08-11T04:40:13.662Z,320.00
2022-08-11T04:41:13.661Z,332.00
2022-08-11T04:42:13.654Z,344.00
2022-08-11T04:43:13.652Z,352.00
2022-08-11T04:44:13.645Z,360.00
2022-08-11T04:45:13.649Z,372.00
2022-08-11T04:46:13.637Z,380.00
2022-08-11T04:47:13.636Z,392.00
2022-08-11T04:48:13.631Z,400.00
2022-08-11T04:49:13.629Z,412.00
2022-08-11T04:50:13.617Z,420.00
2022-08-11T04:51:16.694Z,428.00
2022-08-11T04:52:13.612Z,440.00
2022-08-11T04:53:13.610Z,444.00
2022-08-11T04:54:13.602Z,452.00
2022-08-11T04:55:13.628Z,464.00
2022-08-11T04:56:13.594Z,472.00
2022-08-11T04:57:13.592Z,484.00
2022-08-11T04:58:13.586Z,488.00
2022-08-11T04:59:13.582Z,500.00
2022-08-11T05:00:13.577Z,512.00
2022-08-11T05:01:13.608Z,520.00
2022-08-11T05:02:17.068Z,532.00
2022-08-11T05:03:13.563Z,544.00
2022-08-11T05:04:13.561Z,552.00
2022-08-11T05:05:13.558Z,560.00
2022-08-11T05:06:13.550Z,568.00
2022-08-11T05:07:13.549Z,576.00
2022-08-11T05:08:13.541Z,584.00
2022-08-11T05:09:13.537Z,592.00
2022-08-11T05:10:13.532Z,596.00
2022-08-11T05:11:13.531Z,604.00
2022-08-11T05:12:13.525Z,612.00
2022-08-11T05:13:13.526Z,624.00
2022-08-11T05:14:13.515Z,628.00
2022-08-11T05:15:13.515Z,636.00
2022-08-11T05:16:13.506Z,644.00
2022-08-11T05:17:13.504Z,652.00
2022-08-11T05:18:13.501Z,660.00
2022-08-11T05:19:16.314Z,668.00
2022-08-11T05:20:13.491Z,680.00
2022-08-11T05:21:13.487Z,688.00
2022-08-11T05:22:13.479Z,696.00
2022-08-11T05:23:13.479Z,708.00
2022-08-11T05:24:13.472Z,716.00
2022-08-11T05:25:13.471Z,724.00
2022-08-11T05:26:47.243Z,728.00
2022-08-11T05:27:14.053Z,736.00
2022-08-11T05:28:13.497Z,744.00
2022-08-11T05:29:19.462Z,752.00
2022-08-11T05:30:13.447Z,756.00
2022-08-11T05:31:13.445Z,760.00
2022-08-11T05:32:13.439Z,764.00
2022-08-11T05:33:13.437Z,768.00
2022-08-11T05:34:13.428Z,772.00
2022-08-11T05:35:28.763Z,772.00
2022-08-11T05:36:13.421Z,780.00
2022-08-11T05:37:26.092Z,784.00
2022-08-11T05:38:13.414Z,788.00
2022-08-11T05:39:13.499Z,792.00
2022-08-11T05:40:13.406Z,796.00
2022-08-11T05:41:13.401Z,804.00
2022-08-11T05:42:21.317Z,804.00
2022-08-11T05:43:13.395Z,812.00
2022-08-11T05:44:20.626Z,816.00
2022-08-11T05:45:15.216Z,820.00
2022-08-11T05:46:13.397Z,828.00
2022-08-11T05:47:13.374Z,832.00
2022-08-11T05:48:13.375Z,832.00
2022-08-11T05:49:13.371Z,836.00
2022-08-11T05:50:15.191Z,840.00
2022-08-11T05:51:13.361Z,840.00
2022-08-11T05:52:16.600Z,844.00
2022-08-11T05:53:13.354Z,852.00
2022-08-11T05:54:29.146Z,852.00
2022-08-11T05:55:13.348Z,860.00
2022-08-11T05:56:13.339Z,860.00
2022-08-11T05:57:50.583Z,872.00
2022-08-11T05:58:13.331Z,872.00
2022-08-11T05:59:13.328Z,876.00
2022-08-11T06:00:13.323Z,876.00
2022-08-11T06:01:13.445Z,884.00
2022-08-11T06:02:13.343Z,884.00
2022-08-11T06:03:13.319Z,892.00
2022-08-11T06:04:13.309Z,900.00
2022-08-11T06:05:13.305Z,900.00
2022-08-11T06:06:13.307Z,904.00
2022-08-11T06:07:13.298Z,912.00
2022-08-11T06:08:13.294Z,920.00
2022-08-11T06:09:13.300Z,932.00
2022-08-11T06:10:13.283Z,928.00
2022-08-11T06:11:13.282Z,932.00
2022-08-11T06:12:13.275Z,940.00
2022-08-11T06:13:13.274Z,944.00
2022-08-11T06:14:13.291Z,948.00
2022-08-11T06:15:13.266Z,952.00
2022-08-11T06:16:13.262Z,956.00
2022-08-11T06:17:13.259Z,960.00
2022-08-11T06:18:13.251Z,956.00
2022-08-11T06:19:13.249Z,964.00
2022-08-11T06:20:13.333Z,968.00
2022-08-11T06:21:13.246Z,968.00
2022-08-11T06:22:13.239Z,972.00
2022-08-11T06:23:13.237Z,968.00
2022-08-11T06:24:13.316Z,976.00
2022-08-11T06:25:13.229Z,972.00
2022-08-11T06:26:13.225Z,976.00
2022-08-11T06:27:13.985Z,980.00
2022-08-11T06:28:15.946Z,980.00
2022-08-11T06:29:13.215Z,984.00
2022-08-11T06:30:13.211Z,988.00
2022-08-11T06:31:13.828Z,984.00
2022-08-11T06:32:13.203Z,988.00
2022-08-11T06:33:13.202Z,988.00
2022-08-11T06:34:27.302Z,992.00
2022-08-11T06:35:13.191Z,992.00
2022-08-11T06:36:13.189Z,996.00
2022-08-11T06:37:13.184Z,1000.00
2022-08-11T06:38:13.181Z,1008.00
2022-08-11T06:39:13.247Z,1004.00
2022-08-11T06:40:13.176Z,1008.00
2022-08-11T06:41:13.187Z,1008.00
2022-08-11T06:42:13.168Z,1016.00
2022-08-11T06:43:13.165Z,1016.00
2022-08-11T06:44:13.215Z,1016.00
2022-08-11T06:45:13.157Z,1020.00
2022-08-11T06:46:13.152Z,1024.00
2022-08-11T06:47:13.150Z,1020.00
2022-08-11T06:48:13.147Z,1028.00
2022-08-11T06:49:13.145Z,1028.00
2022-08-11T06:50:13.136Z,1024.00
2022-08-11T06:51:13.142Z,1032.00
2022-08-11T06:52:34.478Z,1032.00
2022-08-11T06:53:13.133Z,1036.00
2022-08-11T06:54:13.127Z,1036.00
2022-08-11T06:55:56.721Z,1040.00
2022-08-11T06:56:13.117Z,1036.00
2022-08-11T06:57:29.345Z,1040.00
2022-08-11T06:58:13.128Z,1044.00
2022-08-11T06:59:13.106Z,1048.00
2022-08-11T07:00:13.107Z,1044.00
2022-08-11T07:01:13.127Z,1044.00
2022-08-11T07:02:13.100Z,1044.00
2022-08-11T07:03:13.117Z,1052.00
2022-08-11T07:04:13.092Z,1056.00
2022-08-11T07:05:13.086Z,1060.00
2022-08-11T07:06:13.086Z,1056.00
2022-08-11T07:07:13.081Z,1064.00
2022-08-11T07:08:34.715Z,1060.00
2022-08-11T07:09:13.078Z,1068.00
2022-08-11T07:10:13.068Z,1072.00
2022-08-11T07:11:13.069Z,1068.00
2022-08-11T07:12:13.065Z,1076.00
2022-08-11T07:13:45.663Z,1084.00
2022-08-11T07:14:13.057Z,1076.00
2022-08-11T07:15:13.054Z,1080.00
2022-08-11T07:16:14.164Z,1076.00
2022-08-11T07:17:13.048Z,1084.00
2022-08-11T07:18:13.045Z,1084.00
2022-08-11T07:19:13.037Z,1088.00
2022-08-11T07:20:13.041Z,1092.00
2022-08-11T07:22:00.410Z,1096.00
2022-08-11T07:22:13.031Z,1100.00
2022-08-11T07:23:13.029Z,1104.00
2022-08-11T07:24:13.049Z,1104.00
2022-08-11T07:25:13.023Z,1108.00
2022-08-11T07:26:13.020Z,1112.00
2022-08-11T07:27:13.012Z,1112.00
2022-08-11T07:28:13.017Z,1120.00
2022-08-11T07:29:13.019Z,1120.00
2022-08-11T07:30:13.006Z,1124.00
2022-08-11T07:31:13.050Z,1128.00
2022-08-11T07:32:13.002Z,1128.00
2022-08-11T07:33:14.288Z,1132.00
2022-08-11T07:34:17.421Z,1136.00
2022-08-11T07:35:12.991Z,1140.00
2022-08-11T07:36:12.993Z,1144.00
2022-08-11T07:37:12.985Z,1144.00
2022-08-11T07:38:12.982Z,1148.00
2022-08-11T07:39:12.990Z,1152.00
2022-08-11T07:40:12.974Z,1152.00
2022-08-11T07:41:12.973Z,1148.00
2022-08-11T07:42:12.973Z,1156.00
2022-08-11T07:43:12.965Z,1152.00
2022-08-11T07:44:12.961Z,1152.00
2022-08-11T07:45:12.960Z,1156.00
2022-08-11T07:46:12.956Z,1152.00
2022-08-11T07:47:12.952Z,1148.00
2022-08-11T07:48:12.954Z,1148.00
2022-08-11T07:49:12.959Z,1148.00
2022-08-11T07:50:12.945Z,1144.00
2022-08-11T07:51:12.945Z,1140.00
2022-08-11T07:52:12.940Z,1144.00
2022-08-11T07:53:12.941Z,1144.00
2022-08-11T07:54:17.019Z,1148.00
2022-08-11T07:55:12.928Z,1144.00
2022-08-11T07:56:14.268Z,1152.00
2022-08-11T07:57:12.925Z,1152.00
2022-08-11T07:58:15.849Z,1156.00
2022-08-11T07:59:12.923Z,1156.00
2022-08-11T08:00:12.921Z,1160.00
2022-08-11T08:01:21.781Z,1164.00
2022-08-11T08:02:12.967Z,1168.00
2022-08-11T08:03:12.912Z,1164.00
2022-08-11T08:04:12.907Z,1160.00
2022-08-11T08:05:12.902Z,1160.00
2022-08-11T08:06:28.458Z,1152.00
2022-08-11T08:07:12.895Z,1160.00
2022-08-11T08:08:12.897Z,1152.00
2022-08-11T08:09:12.933Z,1152.00
2022-08-11T08:10:14.084Z,1152.00
2022-08-11T08:11:12.889Z,1148.00
2022-08-11T08:12:12.884Z,1148.00
2022-08-11T08:13:12.883Z,1152.00
2022-08-11T08:14:12.879Z,1152.00
2022-08-11T08:15:12.879Z,1148.00
2022-08-11T08:16:12.877Z,1152.00
2022-08-11T08:17:12.870Z,1164.00
2022-08-11T08:18:26.768Z,1156.00
2022-08-11T08:19:12.864Z,1152.00
2022-08-11T08:20:12.867Z,1172.00
2022-08-11T08:21:12.928Z,1156.00
2022-08-11T08:22:48.297Z,1156.00
2022-08-11T08:23:12.862Z,1160.00
2022-08-11T08:24:12.859Z,1164.00
2022-08-11T08:25:12.856Z,1164.00
2022-08-11T08:26:16.644Z,1168.00
2022-08-11T08:27:12.847Z,1168.00
2022-08-11T08:28:12.849Z,1180.00
2022-08-11T08:29:12.843Z,1180.00
2022-08-11T08:30:12.842Z,1184.00
2022-08-11T08:31:12.841Z,1184.00
2022-08-11T08:32:12.837Z,1188.00
2022-08-11T08:33:12.838Z,1192.00
2022-08-11T08:34:12.833Z,1196.00
2022-08-11T08:35:12.828Z,1204.00
2022-08-11T08:36:13.094Z,1208.00
2022-08-11T08:37:15.751Z,1204.00
2022-08-11T08:38:12.826Z,1208.00
2022-08-11T08:39:12.849Z,1212.00
2022-08-11T08:40:12.818Z,1220.00
2022-08-11T08:41:13.128Z,1224.00
2022-08-11T08:42:12.827Z,1224.00
2022-08-11T08:43:12.814Z,1224.00
2022-08-11T08:44:37.119Z,1228.00
2022-08-11T08:45:12.812Z,1232.00
2022-08-11T08:46:12.811Z,1240.00
2022-08-11T08:47:12.805Z,1236.00
2022-08-11T08:48:12.806Z,1240.00
2022-08-11T08:49:12.801Z,1244.00
2022-08-11T08:50:16.856Z,1240.00
2022-08-11T08:51:12.799Z,1244.00
2022-08-11T08:52:33.526Z,1256.00
2022-08-11T08:53:12.794Z,1260.00
2022-08-11T08:54:12.794Z,1268.00
2022-08-11T08:55:12.790Z,1268.00
2022-08-11T08:56:12.791Z,1276.00
2022-08-11T08:57:12.788Z,1272.00
2022-08-11T08:58:12.809Z,1276.00
2022-08-11T08:59:12.782Z,1280.00
2022-08-11T09:00:14.512Z,1280.00
2022-08-11T09:01:12.819Z,1276.00
2022-08-11T09:02:12.780Z,1280.00
2022-08-11T09:03:39.126Z,1280.00
2022-08-11T09:04:16.219Z,1288.00
2022-08-11T09:05:12.772Z,1292.00
2022-08-11T09:06:12.775Z,1296.00
2022-08-11T09:07:12.769Z,1296.00
2022-08-11T09:08:12.771Z,1300.00
2022-08-11T09:09:12.769Z,1296.00
2022-08-11T09:10:12.765Z,1296.00
2022-08-11T09:11:13.971Z,1296.00
2022-08-11T09:12:12.763Z,1300.00
2022-08-11T09:13:12.760Z,1308.00
2022-08-11T09:14:15.024Z,1312.00
2022-08-11T09:15:12.755Z,1316.00
2022-08-11T09:16:12.758Z,1320.00
2022-08-11T09:17:12.752Z,1328.00
2022-08-11T09:18:12.753Z,1332.00
2022-08-11T09:19:12.752Z,1324.00
2022-08-11T09:20:12.769Z,1328.00
2022-08-11T09:21:12.748Z,1328.00
2022-08-11T09:22:12.746Z,1336.00
2022-08-11T09:24:06.369Z,1340.00
2022-08-11T09:24:19.348Z,1344.00
2022-08-11T09:25:12.732Z,1344.00
2022-08-11T09:26:12.740Z,1352.00
2022-08-11T09:27:12.737Z,1352.00
2022-08-11T09:28:12.742Z,1352.00
2022-08-11T09:29:12.737Z,1364.00
2022-08-11T09:30:12.740Z,1364.00
2022-08-11T09:31:13.499Z,1368.00
2022-08-11T09:32:12.735Z,1372.00
2022-08-11T09:33:12.737Z,1372.00
2022-08-11T09:34:12.732Z,1384.00
2022-08-11T09:35:12.728Z,1388.00
2022-08-11T09:36:12.732Z,1396.00
2022-08-11T09:37:12.730Z,1404.00
2022-08-11T09:38:12.729Z,1400.00
2022-08-11T09:39:12.735Z,1404.00
2022-08-11T09:40:12.723Z,1412.00
2022-08-11T09:41:12.724Z,1420.00
2022-08-11T09:42:16.582Z,1420.00
2022-08-11T09:43:12.721Z,1428.00
2022-08-11T09:44:12.720Z,1428.00
2022-08-11T09:45:12.715Z,1436.00
2022-08-11T09:46:12.718Z,1440.00
2022-08-11T09:47:12.719Z,1444.00
2022-08-11T09:48:12.710Z,1452.00
2022-08-11T09:49:12.715Z,1464.00
2022-08-11T09:50:12.707Z,1468.00
2022-08-11T09:51:12.712Z,1500.00
2022-08-11T09:52:12.710Z,1512.00
2022-08-11T09:53:35.900Z,1520.00
2022-08-11T09:54:12.709Z,1536.00
2022-08-11T09:55:12.708Z,1528.00
2022-08-11T09:56:12.709Z,1536.00
2022-08-11T09:57:12.725Z,1556.00
2022-08-11T09:58:12.711Z,1572.00
2022-08-11T09:59:12.703Z,1632.00
2022-08-11T10:00:14.069Z,1768.00
2022-08-11T10:01:12.739Z,1856.00
2022-08-11T10:02:12.702Z,1760.00
2022-08-11T10:03:12.701Z,1676.00
2022-08-11T10:04:12.700Z,1664.00
2022-08-11T10:05:12.698Z,1732.00
2022-08-11T10:06:12.706Z,1756.00
2022-08-11T10:07:12.700Z,1788.00
2022-08-11T10:08:12.700Z,1748.00
2022-08-11T10:09:12.695Z,1796.00
2022-08-11T10:10:12.697Z,1872.00
2022-08-11T10:11:12.696Z,1960.00
2022-08-11T10:12:12.696Z,2092.00
2022-08-11T10:14:04.921Z,2196.00
2022-08-11T10:14:33.295Z,2216.00
2022-08-11T10:15:12.693Z,2204.00
2022-08-11T10:16:16.006Z,2216.00
2022-08-11T10:17:12.699Z,2184.00
2022-08-11T10:18:12.694Z,2212.00
2022-08-11T10:19:12.715Z,2072.00
2022-08-11T10:20:12.690Z,2112.00
2022-08-11T10:21:12.691Z,2004.00
2022-08-11T10:22:12.688Z,2508.00
2022-08-11T10:23:12.689Z,2848.00
2022-08-11T10:24:12.696Z,3048.00
2022-08-11T10:25:12.689Z,3136.00
2022-08-11T10:26:12.685Z,2960.00
2022-08-11T10:27:12.683Z,2572.00
2022-08-11T10:28:33.085Z,2448.00
2022-08-11T10:29:13.869Z,2280.00
2022-08-11T10:30:12.688Z,2020.00
2022-08-11T10:31:13.757Z,1852.00
2022-08-11T10:32:12.683Z,1824.00
2022-08-11T10:33:12.685Z,1836.00
2022-08-11T10:34:12.683Z,1856.00
2022-08-11T10:35:12.715Z,1884.00
2022-08-11T10:36:16.387Z,1900.00
2022-08-11T10:37:14.963Z,1916.00
2022-08-11T10:38:12.684Z,1948.00
2022-08-11T10:39:12.736Z,1956.00
2022-08-11T10:40:12.686Z,1972.00
2022-08-11T10:41:12.689Z,1976.00
2022-08-11T10:42:21.017Z,1972.00
2022-08-11T10:43:12.678Z,1980.00
2022-08-11T10:44:12.685Z,1992.00
2022-08-11T10:45:12.683Z,2004.00
2022-08-11T10:46:12.685Z,2024.00
2022-08-11T10:47:12.682Z,2028.00
2022-08-11T10:48:15.521Z,2040.00
2022-08-11T10:49:12.680Z,2068.00
2022-08-11T10:50:12.688Z,2084.00
2022-08-11T10:51:12.682Z,2092.00
2022-08-11T10:52:12.683Z,2108.00
2022-08-11T10:53:12.684Z,2116.00
2022-08-11T10:54:12.783Z,2140.00
2022-08-11T10:55:12.679Z,2124.00
2022-08-11T10:56:12.684Z,2132.00
2022-08-11T10:57:12.684Z,2160.00
2022-08-11T10:58:12.684Z,2184.00
2022-08-11T10:59:12.671Z,2192.00
2022-08-11T11:00:12.726Z,2184.00
2022-08-11T11:01:12.704Z,2176.00
2022-08-11T11:02:12.679Z,2192.00
2022-08-11T11:03:22.818Z,2204.00
2022-08-11T11:04:12.717Z,2224.00
2022-08-11T11:05:12.683Z,2248.00
2022-08-11T11:06:29.489Z,2268.00
2022-08-11T11:07:12.680Z,2280.00
2022-08-11T11:08:12.686Z,2284.00
2022-08-11T11:09:12.682Z,2300.00
2022-08-11T11:10:12.708Z,2320.00
2022-08-11T11:11:12.683Z,2348.00
2022-08-11T11:12:12.683Z,2360.00
2022-08-11T11:13:12.687Z,2356.00
2022-08-11T11:14:12.683Z,2368.00
2022-08-11T11:15:17.838Z,2420.00
2022-08-11T11:16:12.687Z,2412.00
2022-08-11T11:17:14.107Z,2468.00
2022-08-11T11:18:12.687Z,2496.00
2022-08-11T11:19:12.688Z,2508.00
2022-08-11T11:20:34.542Z,2508.00
2022-08-11T11:21:12.690Z,2536.00
2022-08-11T11:22:12.686Z,2544.00
2022-08-11T11:23:12.691Z,2580.00
2022-08-11T11:24:12.689Z,2592.00
2022-08-11T11:25:12.689Z,2620.00
2022-08-11T11:26:12.689Z,2640.00
2022-08-11T11:27:12.691Z,2672.00
2022-08-11T11:28:12.691Z,2704.00
2022-08-11T11:29:12.692Z,2740.00
2022-08-11T11:30:12.691Z,2828.00
2022-08-11T11:31:12.693Z,3100.00
2022-08-11T11:32:12.692Z,3960.00
2022-08-11T11:33:12.696Z,5016.00
2022-08-11T11:34:13.145Z,5812.00
2022-08-11T11:35:12.694Z,6388.00
2022-08-11T11:36:12.697Z,6720.00
2022-08-11T11:37:12.699Z,7004.00
2022-08-11T11:38:14.097Z,6872.00
2022-08-11T11:39:12.715Z,8448.00
2022-08-11T11:40:12.700Z,13984.00
2022-08-11T11:41:12.709Z,18720.00
2022-08-11T11:42:12.701Z,19008.00
2022-08-11T11:43:12.704Z,19104.00
2022-08-11T11:44:12.702Z,19424.00
2022-08-11T11:45:14.986Z,19328.00
2022-08-11T11:46:12.710Z,19488.00
2022-08-11T11:47:12.713Z,19392.00
2022-08-11T11:48:12.715Z,19392.00
2022-08-11T11:49:17.233Z,19552.00
2022-08-11T11:50:12.829Z,20224.00
2022-08-11T11:51:12.723Z,20160.00
2022-08-11T11:52:12.722Z,19808.00
2022-08-11T11:53:12.725Z,19968.00
2022-08-11T11:54:12.726Z,20032.00
2022-08-11T11:55:12.845Z,19616.00
2022-08-11T11:56:12.736Z,19616.00
2022-08-11T11:57:12.751Z,19712.00
2022-08-11T11:58:18.656Z,19776.00
2022-08-11T11:59:12.741Z,20192.00
2022-08-11T12:00:12.797Z,20288.00
2022-08-11T12:01:12.754Z,19936.00
2022-08-11T12:02:12.757Z,19968.00
2022-08-11T12:03:12.792Z,20384.00
2022-08-11T12:04:12.758Z,20128.00
2022-08-11T12:05:12.764Z,19936.00
2022-08-11T12:06:12.771Z,20192.00
2022-08-11T12:07:12.776Z,20032.00
2022-08-11T12:08:13.417Z,20128.00
2022-08-11T12:09:12.779Z,20064.00
2022-08-11T12:10:12.781Z,20256.00
2022-08-11T12:11:12.789Z,19776.00
2022-08-11T12:12:12.790Z,19424.00
2022-08-11T12:13:12.801Z,19648.00
2022-08-11T12:14:12.798Z,19648.00
2022-08-11T12:15:12.814Z,19584.00
2022-08-11T12:16:33.834Z,19680.00
2022-08-11T12:17:12.813Z,19200.00
2022-08-11T12:18:12.819Z,18720.00
2022-08-11T12:19:12.864Z,18720.00
2022-08-11T12:20:30.937Z,18112.00
2022-08-11T12:21:12.836Z,17184.00
2022-08-11T12:22:12.834Z,16064.00
2022-08-11T12:23:14.721Z,14400.00
2022-08-11T12:24:12.844Z,12164.00
2022-08-11T12:25:12.850Z,11028.00
2022-08-11T12:26:28.183Z,10452.00
2022-08-11T12:27:16.551Z,10156.00
2022-08-11T12:28:12.866Z,9892.00
2022-08-11T12:29:12.870Z,9688.00
2022-08-11T12:30:12.870Z,9516.00
2022-08-11T12:31:12.882Z,9412.00